Time;durP1;ratioP1;P1;durP2;ratioP2;P2;SDS_P1;SDS_P2;PMS_P1;PMS_P2;Temp;Humidity;BMP_temperature;BMP_pressure;BME280_temperature;BME280_humidity;BME280_pressure;Samples;Min_cycle;Max_cycle;Signal;HPM_P1;HPM_P2
2023/04/12 00:03:11;;;;;;;1.95;1.10;;;19.30;40.40;;;;;;20842922;28;20045;-56
2023/04/12 00:13:13;;;;;;;2.05;1.33;;;19.20;40.70;;;;;;20841896;28;20053;-55
2023/04/12 00:23:16;;;;;;;4.38;1.23;;;19.00;41.30;;;;;;20841605;28;20049;-54
2023/04/12 00:33:17;;;;;;;2.80;1.40;;;19.10;41.40;;;;;;20839652;28;20092;-56
2023/04/12 00:43:19;;;;;;;2.85;1.58;;;19.00;41.50;;;;;;20839386;28;20085;-56
2023/04/12 00:53:23;;;;;;;2.30;1.25;;;19.00;41.50;;;;;;20839052;28;20056;-55
2023/04/12 01:03:26;;;;;;;5.93;1.85;;;18.90;41.90;;;;;;20836930;28;20041;-55
2023/04/12 01:13:36;;;;;;;4.97;1.20;;;18.70;42.50;;;;;;20837019;28;20049;-56
2023/04/12 01:23:59;;;;;;;3.65;1.30;;;18.50;43.20;;;;;;20836639;28;20081;-56
2023/04/12 01:34:03;;;;;;;4.80;1.57;;;18.40;43.90;;;;;;20818573;28;20486;-56
2023/04/12 01:44:05;;;;;;;2.25;1.30;;;18.30;44.60;;;;;;20833665;28;20049;-55
2023/04/12 01:54:10;;;;;;;2.35;1.20;;;18.20;45.10;;;;;;20834391;28;20079;-55
2023/04/12 02:04:13;;;;;;;2.70;1.55;;;18.00;45.60;;;;;;20833716;28;20049;-55
2023/04/12 02:14:15;;;;;;;8.73;1.60;;;17.90;45.90;;;;;;20832762;28;20510;-55
2023/04/12 02:24:16;;;;;;;3.40;1.73;;;17.80;46.50;;;;;;20832363;28;20086;-56
2023/04/12 02:34:18;;;;;;;2.53;1.90;;;17.60;47.00;;;;;;20831974;28;20103;-55
2023/04/12 02:44:19;;;;;;;5.50;1.80;;;17.60;47.40;;;;;;20831473;28;20077;-55
2023/04/12 02:54:21;;;;;;;8.25;2.55;;;17.40;48.00;;;;;;20840452;28;20072;-55
2023/04/12 03:04:28;;;;;;;2.20;1.67;;;17.20;49.00;;;;;;20847467;28;20065;-55
2023/04/12 03:14:30;;;;;;;4.90;1.58;;;16.90;50.10;;;;;;20845350;28;20144;-56
2023/04/12 03:24:36;;;;;;;2.97;1.60;;;16.70;50.60;;;;;;20845960;28;20073;-55
2023/04/12 03:34:37;;;;;;;3.08;1.70;;;16.90;50.20;;;;;;20844217;28;20045;-54
2023/04/12 03:44:38;;;;;;;5.15;2.30;;;16.90;50.70;;;;;;20843410;28;20056;-55
2023/04/12 03:54:40;;;;;;;3.85;2.03;;;16.70;52.00;;;;;;20842671;28;20041;-55
2023/04/12 04:04:41;;;;;;;5.45;2.08;;;16.60;52.30;;;;;;20841292;28;20045;-56
2023/04/12 04:14:43;;;;;;;4.80;2.25;;;16.50;52.70;;;;;;20841988;28;20529;-55
2023/04/12 04:24:44;;;;;;;7.70;2.00;;;16.30;53.00;;;;;;20839582;28;20042;-57
2023/04/12 04:34:46;;;;;;;4.80;2.88;;;16.20;53.50;;;;;;20840753;28;20049;-56
2023/04/12 04:44:50;;;;;;;6.32;2.40;;;16.10;54.00;;;;;;20839860;28;20049;-56
2023/04/12 04:54:56;;;;;;;3.10;1.80;;;15.70;55.30;;;;;;20839035;28;20053;-56
2023/04/12 05:04:58;;;;;;;5.22;2.53;;;15.60;56.70;;;;;;20838381;28;20068;-57
2023/04/12 05:15:00;;;;;;;6.80;2.50;;;15.30;57.60;;;;;;20836638;28;20049;-56
2023/04/12 05:25:02;;;;;;;6.63;2.13;;;15.20;58.30;;;;;;20835560;28;20045;-57
2023/04/12 05:35:04;;;;;;;6.93;2.25;;;15.20;58.90;;;;;;20835924;28;20045;-57
2023/04/12 05:45:06;;;;;;;5.38;2.78;;;14.90;59.90;;;;;;20835181;28;20479;-57
2023/04/12 05:55:08;;;;;;;5.43;2.45;;;14.70;60.80;;;;;;20834292;28;20136;-57
2023/04/12 06:05:10;;;;;;;6.25;2.25;;;14.60;61.00;;;;;;20833612;28;20052;-56
2023/04/12 06:15:11;;;;;;;10.68;2.85;;;14.70;60.70;;;;;;20832563;28;20649;-57
2023/04/12 06:25:13;;;;;;;6.30;2.25;;;14.70;60.20;;;;;;20830801;28;20392;-58
2023/04/12 06:35:15;;;;;;;5.22;2.42;;;14.80;58.40;;;;;;20830862;28;20045;-56
2023/04/12 06:45:17;;;;;;;6.93;2.58;;;14.80;58.60;;;;;;20830748;28;20411;-55
2023/04/12 06:55:20;;;;;;;8.63;2.90;;;14.90;55.20;;;;;;20828569;28;20050;-56
2023/04/12 07:05:21;;;;;;;6.63;3.28;;;15.30;53.90;;;;;;20828802;28;20454;-56
2023/04/12 07:15:22;;;;;;;8.48;2.60;;;15.70;52.30;;;;;;20828863;28;20064;-57
2023/04/12 07:25:24;;;;;;;6.85;2.17;;;16.10;49.20;;;;;;20828875;28;20053;-56
2023/04/12 07:35:26;;;;;;;5.10;2.38;;;16.60;45.70;;;;;;20828810;28;20085;-56
2023/04/12 07:45:28;;;;;;;3.22;1.75;;;16.70;44.60;;;;;;20844666;28;20053;-56
2023/04/12 07:55:29;;;;;;;5.60;2.00;;;17.00;42.10;;;;;;20843733;28;20046;-57
2023/04/12 08:05:31;;;;;;;3.42;1.63;;;17.30;40.10;;;;;;20842112;28;20116;-56
2023/04/12 08:15:32;;;;;;;2.65;1.40;;;17.70;38.70;;;;;;20841256;28;20056;-60
2023/04/12 08:25:34;;;;;;;13.10;1.70;;;18.30;44.60;;;;;;20839947;28;20129;-61
2023/04/12 08:35:35;;;;;;;5.80;1.35;;;19.00;39.50;;;;;;20838080;28;20049;-59
2023/04/12 08:45:37;;;;;;;5.32;1.70;;;19.50;39.20;;;;;;20839485;28;20379;-60
2023/04/12 08:55:42;;;;;;;4.72;1.42;;;19.60;35.50;;;;;;20837781;28;20049;-58
2023/04/12 09:05:43;;;;;;;3.88;1.48;;;19.70;35.80;;;;;;20836353;28;20053;-58
2023/04/12 09:15:51;;;;;;;5.45;1.30;;;20.20;35.50;;;;;;20836251;28;20168;-61
2023/04/12 09:25:52;;;;;;;5.20;2.40;;;20.40;33.80;;;;;;20834639;28;20041;-61
2023/04/12 09:36:00;;;;;;;5.63;1.17;;;20.40;34.60;;;;;;20834964;28;20045;-56
2023/04/12 09:46:28;;;;;;;5.43;1.20;;;20.50;34.10;;;;;;20834868;28;20091;-56
2023/04/12 09:56:31;;;;;;;3.75;1.20;;;20.20;33.90;;;;;;20829383;28;20095;-56
2023/04/12 10:06:33;;;;;;;5.20;1.48;;;20.30;34.90;;;;;;20833371;28;20503;-57
2023/04/12 10:16:35;;;;;;;3.25;1.30;;;20.40;35.10;;;;;;20832081;28;20065;-57
2023/04/12 10:26:42;;;;;;;5.57;1.33;;;20.30;35.50;;;;;;20831663;28;20049;-56
2023/04/12 10:37:00;;;;;;;4.45;1.20;;;20.20;36.30;;;;;;20830110;28;20054;-59
2023/04/12 10:47:01;;;;;;;5.45;1.40;;;20.60;35.60;;;;;;20830944;28;20411;-58
2023/04/12 10:57:03;;;;;;;2.95;1.20;;;20.90;34.40;;;;;;20830939;28;20426;-56
2023/04/12 11:07:10;;;;;;;2.17;1.02;;;21.20;34.10;;;;;;20830046;28;20049;-55
2023/04/12 11:17:17;;;;;;;4.88;1.17;;;21.10;34.10;;;;;;20840532;28;20525;-56
2023/04/12 11:27:20;;;;;;;2.30;1.10;;;21.50;32.90;;;;;;20845586;28;20052;-57
2023/04/12 11:37:22;;;;;;;4.85;1.60;;;21.60;31.70;;;;;;20844221;28;20069;-56
2023/04/12 11:47:25;;;;;;;3.83;1.57;;;21.60;33.20;;;;;;20844090;28;20412;-57
2023/04/12 11:57:27;;;;;;;;;;;21.60;32.80;;;;;;20843033;28;20057;-56
2023/04/12 12:07:29;;;;;;;3.55;1.60;;;21.70;32.10;;;;;;20841382;28;19928;-59
2023/04/12 12:17:37;;;;;;;6.60;2.17;;;21.70;32.90;;;;;;20840389;28;20053;-57
2023/04/12 12:27:43;;;;;;;2.75;1.27;;;21.60;32.60;;;;;;20838612;28;20450;-58
2023/04/12 12:37:49;;;;;;;3.35;1.65;;;21.70;31.10;;;;;;20837854;28;20049;-57
2023/04/12 12:47:53;;;;;;;5.72;1.73;;;21.80;32.40;;;;;;20838993;28;20146;-57
2023/04/12 12:57:56;;;;;;;2.97;1.55;;;22.20;32.50;;;;;;20838909;28;20486;-57
2023/04/12 13:07:58;;;;;;;8.13;3.42;;;22.20;32.10;;;;;;20837340;28;20410;-58
2023/04/12 13:17:59;;;;;;;5.38;2.15;;;22.00;32.80;;;;;;20835982;28;20057;-57
2023/04/12 13:28:01;;;;;;;5.18;1.35;;;22.10;32.70;;;;;;20834851;28;20045;-57
2023/04/12 13:38:02;;;;;;;3.35;1.08;;;22.00;33.00;;;;;;20835289;28;20056;-56
2023/04/12 13:48:04;;;;;;;4.22;1.70;;;22.00;33.10;;;;;;20835339;28;20049;-58
2023/04/12 13:58:05;;;;;;;5.10;1.83;;;21.80;33.90;;;;;;20832586;28;20045;-57
2023/04/12 14:08:07;;;;;;;3.65;2.00;;;21.60;35.00;;;;;;20832375;28;20429;-56
2023/04/12 14:18:08;;;;;;;3.58;1.65;;;21.50;35.70;;;;;;20833116;28;20053;-55
2023/04/12 14:28:10;;;;;;;4.05;1.70;;;21.30;37.20;;;;;;20832004;28;20081;-56
2023/04/12 14:38:11;;;;;;;3.70;2.35;;;21.30;36.20;;;;;;20831370;28;20053;-55
2023/04/12 14:48:12;;;;;;;3.28;1.73;;;21.10;35.70;;;;;;20830214;28;20115;-56
2023/04/12 14:58:14;;;;;;;5.78;1.73;;;20.80;36.10;;;;;;20830764;28;20088;-55
2023/04/12 15:08:15;;;;;;;4.30;2.38;;;21.40;35.30;;;;;;20828248;28;20045;-56
2023/04/12 15:18:17;;;;;;;5.60;3.58;;;20.90;35.90;;;;;;20828392;28;20058;-55
2023/04/12 15:28:18;;;;;;;4.03;1.38;;;20.80;36.20;;;;;;20828062;28;20053;-57
2023/04/12 15:38:20;;;;;;;3.72;1.58;;;20.90;36.70;;;;;;20827929;28;20143;-55
2023/04/12 15:48:22;;;;;;;2.88;1.67;;;21.10;38.30;;;;;;20828622;28;20406;-55
2023/04/12 15:58:25;;;;;;;2.30;1.10;;;21.20;36.90;;;;;;20831837;28;20056;-55
2023/04/12 16:08:27;;;;;;;2.90;1.35;;;20.90;37.50;;;;;;20839761;28;20041;-60
2023/04/12 16:18:30;;;;;;;3.75;1.40;;;21.20;37.60;;;;;;20839835;28;20064;-57
2023/04/12 16:28:32;;;;;;;4.70;1.65;;;21.00;39.40;;;;;;20836971;28;20045;-54
2023/04/12 16:38:33;;;;;;;2.70;1.13;;;21.10;39.50;;;;;;20832296;28;20062;-56
2023/04/12 16:48:37;;;;;;;7.03;1.48;;;20.80;39.50;;;;;;20833517;28;20053;-56
2023/04/12 16:58:39;;;;;;;2.38;1.35;;;20.60;39.90;;;;;;20829554;28;20049;-56
2023/04/12 17:08:40;;;;;;;8.23;3.95;;;20.50;40.80;;;;;;20835469;28;20078;-60
2023/04/12 17:18:42;;;;;;;14.05;3.50;;;20.20;44.00;;;;;;20835637;28;20100;-56
2023/04/12 17:28:43;;;;;;;5.03;2.17;;;20.20;49.40;;;;;;20832897;28;20491;-57
2023/04/12 17:38:45;;;;;;;3.17;1.15;;;19.40;51.80;;;;;;20833660;28;20502;-56
2023/04/12 17:48:46;;;;;;;8.40;1.92;;;19.70;46.00;;;;;;20832695;28;20068;-57
2023/04/12 17:58:48;;;;;;;2.88;1.80;;;19.10;47.90;;;;;;20831880;28;20052;-57
2023/04/12 18:08:49;;;;;;;1.63;0.70;;;19.00;46.70;;;;;;20831429;28;20041;-57
2023/04/12 18:18:53;;;;;;;3.43;0.70;;;18.70;47.50;;;;;;20829878;28;20069;-58
2023/04/12 18:28:56;;;;;;;1.57;0.60;;;19.10;47.40;;;;;;20829716;28;20053;-55
2023/04/12 18:38:58;;;;;;;7.32;0.90;;;18.60;49.60;;;;;;20830936;28;20049;-56
2023/04/12 18:49:05;;;;;;;2.10;0.70;;;19.00;48.50;;;;;;20830616;28;20141;-55
2023/04/12 18:59:07;;;;;;;1.17;0.70;;;18.90;45.10;;;;;;20828086;28;20050;-56
2023/04/12 19:09:09;;;;;;;1.95;0.80;;;18.00;46.50;;;;;;20828968;28;20050;-57
2023/04/12 19:19:10;;;;;;;2.33;1.00;;;17.70;46.90;;;;;;20828000;28;20061;-56
2023/04/12 19:29:14;;;;;;;1.88;0.80;;;17.50;46.40;;;;;;20826640;28;20123;-56
2023/04/12 19:39:17;;;;;;;1.23;0.65;;;17.30;45.00;;;;;;20841177;28;20106;-57
2023/04/12 19:49:22;;;;;;;3.38;0.80;;;17.00;44.30;;;;;;20842899;28;20411;-55
2023/04/12 19:59:26;;;;;;;1.02;0.80;;;16.90;44.50;;;;;;20841830;28;20049;-57
2023/04/12 20:09:27;;;;;;;1.05;0.60;;;16.60;43.40;;;;;;20841021;28;20072;-57
2023/04/12 20:19:29;;;;;;;2.97;0.70;;;16.40;44.10;;;;;;20839569;28;20068;-57
2023/04/12 20:29:33;;;;;;;1.98;0.95;;;16.40;44.00;;;;;;20839779;28;20045;-57
2023/04/12 20:39:34;;;;;;;2.35;0.98;;;16.20;43.70;;;;;;20839496;28;20053;-57
2023/04/12 20:49:36;;;;;;;1.92;1.10;;;16.00;43.80;;;;;;20837394;28;20049;-57
2023/04/12 20:59:38;;;;;;;2.88;1.00;;;15.30;44.70;;;;;;20836732;28;20060;-55
2023/04/12 21:09:39;;;;;;;3.83;1.10;;;15.40;44.20;;;;;;20836674;28;20505;-56
2023/04/12 21:19:43;;;;;;;2.22;1.08;;;15.40;42.60;;;;;;20834220;28;20053;-55
2023/04/12 21:29:46;;;;;;;1.43;0.90;;;15.30;40.30;;;;;;20835009;28;20501;-56
2023/04/12 21:39:47;;;;;;;2.50;0.88;;;15.20;40.00;;;;;;20834398;28;20656;-57
2023/04/12 21:49:51;;;;;;;2.45;1.10;;;14.90;41.00;;;;;;20834454;28;20057;-56
2023/04/12 21:59:52;;;;;;;;;;;14.90;41.20;;;;;;20832948;28;20056;-55
2023/04/12 22:09:54;;;;;;;3.47;1.20;;;14.80;41.70;;;;;;20833037;28;19994;-57
2023/04/12 22:19:56;;;;;;;3.67;1.30;;;14.60;42.30;;;;;;20833268;28;20422;-55
2023/04/12 22:29:59;;;;;;;3.05;1.48;;;14.50;42.70;;;;;;20832026;28;20041;-56
2023/04/12 22:40:01;;;;;;;3.72;1.50;;;14.50;42.50;;;;;;20831614;28;20391;-56
2023/04/12 22:50:07;;;;;;;2.85;1.27;;;14.40;42.80;;;;;;20829886;28;20050;-55
2023/04/12 23:00:11;;;;;;;2.42;1.40;;;14.40;43.20;;;;;;20830989;28;20072;-54
2023/04/12 23:10:13;;;;;;;2.60;1.25;;;14.30;43.00;;;;;;20837580;28;20124;-56
2023/04/12 23:20:15;;;;;;;6.50;1.30;;;14.20;43.50;;;;;;20846462;28;20430;-57
2023/04/12 23:30:17;;;;;;;3.55;1.15;;;14.10;42.80;;;;;;20845748;28;20391;-55
2023/04/12 23:40:19;;;;;;;4.90;1.17;;;13.80;43.60;;;;;;20845076;28;20103;-54
2023/04/12 23:50:20;;;;;;;5.63;1.60;;;13.70;43.10;;;;;;20844311;28;20507;-55
